Time;durP1;ratioP1;P1;durP2;ratioP2;P2;SDS_P1;SDS_P2;PMS_P1;PMS_P2;Temp;Humidity;BMP_temperature;BMP_pressure;BME280_temperature;BME280_humidity;BME280_pressure;Samples;Min_cycle;Max_cycle;Signal;HPM_P1;HPM_P2
2023/01/12 00:02:15;;;;;;;7.72;2.00;;;7.90;99.90;;;;;;5040285;28;20107;-84
2023/01/12 00:04:41;;;;;;;4.90;1.50;;;7.90;99.90;;;;;;5054380;28;20017;-84
2023/01/12 00:07:12;;;;;;;4.18;1.42;;;7.90;99.90;;;;;;5036292;28;20029;-84
2023/01/12 00:09:37;;;;;;;5.18;1.88;;;7.90;99.90;;;;;;5036153;28;20178;-84
2023/01/12 00:12:06;;;;;;;4.65;1.33;;;7.90;99.90;;;;;;5036365;28;20542;-85
2023/01/12 00:14:36;;;;;;;10.15;1.75;;;8.00;99.90;;;;;;5054120;28;20108;-83
2023/01/12 00:17:02;;;;;;;8.02;1.98;;;8.00;99.90;;;;;;5041040;28;20104;-84
2023/01/12 00:19:28;;;;;;;7.13;2.20;;;8.00;99.90;;;;;;5032654;28;20021;-85
2023/01/12 00:22:00;;;;;;;5.20;1.90;;;8.10;99.90;;;;;;5053910;28;20521;-82
2023/01/12 00:24:33;;;;;;;7.00;2.05;;;8.10;99.90;;;;;;5035604;28;20482;-83
2023/01/12 00:27:00;;;;;;;8.27;2.45;;;8.10;99.90;;;;;;5035797;28;20021;-82
2023/01/12 00:29:27;;;;;;;10.80;2.60;;;8.10;99.90;;;;;;5037486;28;20025;-84
2023/01/12 00:31:53;;;;;;;8.13;2.60;;;8.20;99.90;;;;;;5037285;28;20075;-83
2023/01/12 00:34:19;;;;;;;7.22;2.65;;;8.20;99.90;;;;;;5053665;28;20036;-82
2023/01/12 00:36:46;;;;;;;10.10;3.00;;;8.20;99.90;;;;;;5052892;28;20344;-83
2023/01/12 00:39:12;;;;;;;6.53;2.42;;;8.20;99.90;;;;;;5053566;28;20495;-83
2023/01/12 00:47:08;;;;;;;9.00;2.90;;;8.20;99.90;;;;;;5053767;28;20119;-83
2023/01/12 00:49:35;;;;;;;13.52;2.72;;;8.20;99.90;;;;;;5035206;28;20033;-82
2023/01/12 00:52:00;;;;;;;9.52;3.53;;;8.20;99.90;;;;;;5035379;28;20025;-83
2023/01/12 00:54:26;;;;;;;12.60;3.30;;;8.20;99.90;;;;;;5035559;28;20062;-82
2023/01/12 00:56:52;;;;;;;10.90;3.30;;;8.20;99.90;;;;;;5052925;28;20040;-82
2023/01/12 00:59:17;;;;;;;15.55;3.80;;;8.20;99.90;;;;;;5035167;28;20040;-82
2023/01/12 01:01:43;;;;;;;11.82;3.78;;;8.20;99.90;;;;;;5053067;28;20013;-82
2023/01/12 01:04:08;;;;;;;13.35;4.47;;;8.20;99.90;;;;;;5053019;28;20394;-83
2023/01/12 01:06:37;;;;;;;10.95;4.00;;;8.20;99.90;;;;;;5034962;28;20072;-82
2023/01/12 01:09:03;;;;;;;14.90;4.43;;;8.20;99.90;;;;;;5053100;28;20052;-83
2023/01/12 01:11:28;;;;;;;15.98;4.60;;;8.20;99.90;;;;;;5053108;28;20055;-83
2023/01/12 01:13:54;;;;;;;14.07;4.10;;;8.20;99.90;;;;;;5052930;28;20017;-82
2023/01/12 01:16:20;;;;;;;19.33;5.28;;;8.20;99.90;;;;;;5035157;28;20057;-82
2023/01/12 01:18:45;;;;;;;14.77;4.75;;;8.30;99.90;;;;;;5034824;28;20028;-83
2023/01/12 01:21:13;;;;;;;16.00;5.75;;;8.30;99.90;;;;;;5035080;28;20028;-81
2023/01/12 01:23:40;;;;;;;14.38;4.57;;;8.30;99.90;;;;;;5052557;28;20052;-82
2023/01/12 01:26:08;;;;;;;13.15;4.43;;;8.30;99.90;;;;;;5052635;28;20487;-81
2023/01/12 01:28:35;;;;;;;18.83;5.18;;;8.30;99.90;;;;;;5034687;28;20021;-81
2023/01/12 01:31:07;;;;;;;12.43;4.30;;;8.30;99.90;;;;;;5034942;28;20372;-80
2023/01/12 01:33:32;;;;;;;17.95;4.90;;;8.40;99.90;;;;;;5052385;28;20029;-81
2023/01/12 01:35:58;;;;;;;15.30;5.10;;;8.40;99.90;;;;;;5052440;28;20514;-83
2023/01/12 01:38:24;;;;;;;16.73;5.03;;;8.40;99.90;;;;;;5052258;28;20049;-82
2023/01/12 01:40:50;;;;;;;12.27;4.47;;;8.40;99.90;;;;;;5051753;28;20827;-81
2023/01/12 01:43:17;;;;;;;11.95;4.25;;;8.40;99.90;;;;;;5034407;28;20059;-82
2023/01/12 01:45:54;;;;;;;15.25;4.82;;;8.40;99.90;;;;;;5033939;28;20467;-82
2023/01/12 01:48:21;;;;;;;15.75;5.07;;;8.40;99.90;;;;;;5037519;28;20433;-81
2023/01/12 01:50:53;;;;;;;15.90;4.60;;;8.40;99.90;;;;;;5051230;28;20025;-82
2023/01/12 01:53:23;;;;;;;13.60;4.80;;;8.50;99.90;;;;;;5049104;28;20009;-81
2023/01/12 01:55:58;;;;;;;14.90;4.60;;;8.50;99.90;;;;;;5051167;28;20100;-82
2023/01/12 01:58:26;;;;;;;13.23;4.47;;;8.50;99.90;;;;;;5049631;28;20028;-81
2023/01/12 02:00:52;;;;;;;13.98;4.18;;;8.50;99.90;;;;;;5051184;28;20021;-82
2023/01/12 02:03:18;;;;;;;13.90;3.80;;;8.50;99.90;;;;;;5051240;28;20535;-81
2023/01/12 02:05:47;;;;;;;11.25;4.00;;;8.50;99.90;;;;;;5051123;28;20033;-80
2023/01/12 02:08:19;;;;;;;15.70;4.03;;;8.50;99.90;;;;;;5041291;28;20024;-81
2023/01/12 02:10:44;;;;;;;13.18;3.70;;;8.50;99.90;;;;;;5051100;28;20040;-82
2023/01/12 02:16:19;;;;;;;10.27;3.42;;;8.50;99.90;;;;;;5051174;28;20043;-84
2023/01/12 02:18:51;;;;;;;15.90;4.68;;;8.50;99.90;;;;;;5049629;28;20017;-81
2023/01/12 02:21:37;;;;;;;13.32;4.07;;;8.50;99.90;;;;;;5049094;28;20544;-82
2023/01/12 02:24:32;;;;;;;14.52;3.38;;;8.50;99.90;;;;;;5049031;28;20072;-82
2023/01/12 02:27:18;;;;;;;8.60;2.88;;;8.50;99.90;;;;;;5038851;28;20040;-83
2023/01/12 02:29:50;;;;;;;11.98;3.88;;;8.50;99.90;;;;;;5049158;28;20438;-82
2023/01/12 02:32:35;;;;;;;15.88;4.13;;;8.50;99.90;;;;;;5035711;28;20025;-82
2023/01/12 02:35:27;;;;;;;15.05;3.92;;;8.50;99.90;;;;;;5048942;28;20040;-82
2023/01/12 02:38:03;;;;;;;12.18;4.13;;;8.50;99.90;;;;;;5040524;28;20045;-84
2023/01/12 02:40:33;;;;;;;10.38;2.78;;;8.50;99.90;;;;;;5040856;28;20048;-84
2023/01/12 02:43:25;;;;;;;12.50;3.17;;;8.50;99.90;;;;;;5036050;28;20142;-83
2023/01/12 02:46:05;;;;;;;11.88;3.60;;;8.50;99.90;;;;;;5051592;28;20033;-84
2023/01/12 02:48:35;;;;;;;9.00;2.83;;;8.50;99.90;;;;;;5051961;28;20021;-83
2023/01/12 02:51:27;;;;;;;11.65;3.00;;;8.50;99.90;;;;;;5034164;28;20029;-83
2023/01/12 02:54:06;;;;;;;10.43;2.13;;;8.50;99.90;;;;;;5051890;28;20025;-82
2023/01/12 02:56:45;;;;;;;10.43;2.38;;;8.50;99.90;;;;;;5051753;28;20032;-83
2023/01/12 02:59:21;;;;;;;10.52;2.92;;;8.50;99.90;;;;;;5053029;28;20029;-82
2023/01/12 03:01:50;;;;;;;9.73;2.60;;;8.50;99.90;;;;;;5055303;28;20733;-83
2023/01/12 03:04:18;;;;;;;12.05;2.95;;;8.50;99.90;;;;;;5037625;28;20029;-83
2023/01/12 03:07:17;;;;;;;12.60;2.90;;;8.50;99.90;;;;;;5037647;28;20123;-83
2023/01/12 03:09:48;;;;;;;14.02;2.88;;;8.50;99.90;;;;;;5055599;28;20033;-83
2023/01/12 03:12:20;;;;;;;13.45;3.60;;;8.50;99.90;;;;;;5055745;28;20021;-83
2023/01/12 03:14:48;;;;;;;12.32;3.10;;;8.50;99.90;;;;;;5037791;28;20026;-84
2023/01/12 03:17:22;;;;;;;17.90;4.50;;;8.50;99.90;;;;;;5054868;28;20021;-83
2023/01/12 03:19:48;;;;;;;;;;;8.50;99.90;;;;;;5055991;28;20021;-84
2023/01/12 03:22:16;;;;;;;14.13;3.10;;;8.50;99.90;;;;;;5055477;28;19912;-83
2023/01/12 03:24:54;;;;;;;15.82;3.15;;;8.50;99.90;;;;;;5037559;28;20107;-84
2023/01/12 03:27:27;;;;;;;13.90;3.33;;;8.50;99.90;;;;;;5037585;28;20029;-84
2023/01/12 03:30:05;;;;;;;16.35;3.92;;;8.50;99.90;;;;;;5055452;28;20032;-83
2023/01/12 03:32:31;;;;;;;12.75;3.22;;;8.50;99.90;;;;;;5055304;28;20029;-84
2023/01/12 03:34:57;;;;;;;14.40;3.40;;;8.50;99.90;;;;;;5037425;28;20032;-85
2023/01/12 03:37:45;;;;;;;10.07;3.45;;;8.50;99.90;;;;;;5036925;28;20521;-84
2023/01/12 03:40:24;;;;;;;12.48;3.50;;;8.50;99.90;;;;;;5037326;28;20033;-84
2023/01/12 03:43:06;;;;;;;9.98;2.50;;;8.50;99.90;;;;;;5055177;28;20078;-84
2023/01/12 03:45:35;;;;;;;9.43;2.55;;;8.50;99.90;;;;;;5055173;28;20439;-84
2023/01/12 03:48:16;;;;;;;11.48;2.70;;;8.50;99.90;;;;;;5054718;28;20500;-82
2023/01/12 03:50:48;;;;;;;10.65;2.85;;;8.50;99.90;;;;;;5055018;28;20036;-84
2023/01/12 03:53:17;;;;;;;10.20;2.67;;;8.50;99.90;;;;;;5055032;28;20108;-84
2023/01/12 03:55:45;;;;;;;12.90;2.47;;;8.50;99.90;;;;;;5054847;28;20529;-83
2023/01/12 03:58:11;;;;;;;12.20;2.88;;;8.50;99.90;;;;;;5054843;28;20036;-83
2023/01/12 04:00:37;;;;;;;11.55;2.53;;;8.50;99.90;;;;;;5054858;28;20029;-82
2023/01/12 04:03:11;;;;;;;8.30;2.10;;;8.50;99.90;;;;;;5054743;28;20025;-83
2023/01/12 04:05:37;;;;;;;12.48;2.55;;;8.50;99.90;;;;;;5054690;28;20174;-83
2023/01/12 04:08:02;;;;;;;11.70;2.38;;;8.50;99.90;;;;;;5036823;28;20156;-83
2023/01/12 04:10:28;;;;;;;11.98;2.70;;;8.50;99.90;;;;;;5054233;28;20029;-83
2023/01/12 04:12:54;;;;;;;10.88;2.35;;;8.50;99.90;;;;;;5054643;28;20029;-82
2023/01/12 04:15:19;;;;;;;13.00;3.25;;;8.50;99.90;;;;;;5054550;28;20479;-83
2023/01/12 04:17:45;;;;;;;8.02;2.00;;;8.50;99.90;;;;;;5036616;28;20021;-84
2023/01/12 04:20:11;;;;;;;6.50;2.00;;;8.40;99.90;;;;;;5054486;28;20521;-84
2023/01/12 04:22:42;;;;;;;13.90;2.17;;;8.50;99.90;;;;;;5054413;28;20025;-84
2023/01/12 04:25:19;;;;;;;10.05;2.03;;;8.40;99.90;;;;;;5036331;28;20022;-84
2023/01/12 04:27:47;;;;;;;9.57;2.22;;;8.50;99.90;;;;;;5054318;28;20029;-84
2023/01/12 04:30:15;;;;;;;11.93;1.70;;;8.40;99.90;;;;;;5036530;28;20017;-83
2023/01/12 04:32:43;;;;;;;13.57;2.53;;;8.40;99.90;;;;;;5036212;28;20086;-83
2023/01/12 04:35:11;;;;;;;10.93;2.35;;;8.40;99.90;;;;;;5054160;28;20387;-83
2023/01/12 04:37:37;;;;;;;12.80;2.47;;;8.40;99.90;;;;;;5053858;28;20132;-83
2023/01/12 04:40:04;;;;;;;10.38;2.10;;;8.40;99.90;;;;;;5036214;28;20029;-84
2023/01/12 04:45:14;;;;;;;11.95;2.15;;;8.40;99.90;;;;;;5053938;28;20410;-84
2023/01/12 04:47:39;;;;;;;9.32;2.05;;;8.40;99.90;;;;;;5054010;28;20021;-84
2023/01/12 04:50:05;;;;;;;8.68;2.00;;;8.40;99.90;;;;;;5035728;28;20025;-83
2023/01/12 04:52:31;;;;;;;11.43;2.22;;;8.40;99.90;;;;;;5053851;28;20021;-84
2023/01/12 04:54:56;;;;;;;11.60;2.78;;;8.40;99.90;;;;;;5053903;28;20021;-85
2023/01/12 04:57:22;;;;;;;13.07;2.35;;;8.40;99.90;;;;;;5035845;28;20021;-85
2023/01/12 04:59:47;;;;;;;12.18;2.08;;;8.40;99.90;;;;;;5035817;28;20033;-84
2023/01/12 05:02:13;;;;;;;10.18;2.40;;;8.40;99.90;;;;;;5035829;28;20028;-84
2023/01/12 05:04:39;;;;;;;11.65;2.33;;;8.40;99.90;;;;;;5052542;28;20021;-85
2023/01/12 05:07:04;;;;;;;16.05;3.25;;;8.40;99.90;;;;;;5035690;28;20032;-83
2023/01/12 05:12:14;;;;;;;9.95;2.13;;;8.40;99.90;;;;;;5053916;28;20182;-84
2023/01/12 05:14:39;;;;;;;7.40;1.80;;;8.50;99.90;;;;;;5053601;28;20057;-84
2023/01/12 05:17:05;;;;;;;10.57;2.35;;;8.40;99.90;;;;;;5053129;28;20032;-85
2023/01/12 05:19:30;;;;;;;10.48;2.40;;;8.50;99.90;;;;;;5034462;28;20025;-84
2023/01/12 05:21:56;;;;;;;9.32;2.15;;;8.50;99.90;;;;;;5034713;28;20036;-80
2023/01/12 05:24:21;;;;;;;8.98;1.98;;;8.50;99.90;;;;;;5035449;28;20463;-82
2023/01/12 05:26:47;;;;;;;11.95;2.20;;;8.50;99.90;;;;;;5053211;28;20041;-85
2023/01/12 05:29:13;;;;;;;10.23;2.00;;;8.50;99.90;;;;;;5035603;28;20368;-83
2023/01/12 05:31:39;;;;;;;10.05;2.00;;;8.50;99.90;;;;;;5036414;28;20035;-83
2023/01/12 05:34:04;;;;;;;11.02;2.00;;;8.50;99.90;;;;;;5052214;28;20023;-84
2023/01/12 05:36:30;;;;;;;8.73;1.88;;;8.60;99.90;;;;;;5033456;28;20120;-85
2023/01/12 05:38:55;;;;;;;4.97;1.40;;;8.60;99.90;;;;;;5051617;28;20025;-83
2023/01/12 05:41:21;;;;;;;9.07;2.42;;;8.60;99.90;;;;;;5033800;28;20073;-84
2023/01/12 05:43:50;;;;;;;11.65;1.90;;;8.60;99.90;;;;;;5051459;28;20449;-83
2023/01/12 05:46:25;;;;;;;7.88;1.55;;;8.60;99.90;;;;;;5052356;28;20033;-83
2023/01/12 05:48:52;;;;;;;7.97;1.50;;;8.60;99.90;;;;;;5053161;28;20478;-83
2023/01/12 05:51:18;;;;;;;7.80;1.63;;;8.60;99.90;;;;;;5052545;28;20032;-84
2023/01/12 05:53:44;;;;;;;7.00;1.60;;;8.60;99.90;;;;;;5034864;28;20017;-84
2023/01/12 05:56:20;;;;;;;8.70;1.73;;;8.60;99.90;;;;;;5050321;28;20477;-84
2023/01/12 05:58:50;;;;;;;9.90;1.60;;;8.60;99.90;;;;;;5049491;28;20047;-82
2023/01/12 06:01:15;;;;;;;6.40;1.80;;;8.70;99.90;;;;;;5049660;28;20040;-82
2023/01/12 06:03:41;;;;;;;9.63;1.67;;;8.70;99.90;;;;;;5032171;28;20021;-82
2023/01/12 06:06:07;;;;;;;10.20;1.73;;;8.70;99.90;;;;;;5049724;28;20062;-84
2023/01/12 06:08:32;;;;;;;11.20;1.73;;;8.70;99.90;;;;;;5049836;28;20036;-83
2023/01/12 06:11:02;;;;;;;7.30;1.50;;;8.70;99.90;;;;;;5049714;28;20033;-84
2023/01/12 06:16:11;;;;;;;8.52;1.40;;;8.70;99.90;;;;;;5050023;28;20035;-83
2023/01/12 06:18:38;;;;;;;6.43;1.48;;;8.70;99.90;;;;;;5032141;28;20178;-85
2023/01/12 06:21:06;;;;;;;8.60;1.60;;;8.70;99.90;;;;;;5049678;28;20124;-83
2023/01/12 06:23:32;;;;;;;9.75;2.08;;;8.70;99.90;;;;;;5031563;28;20029;-83
2023/01/12 06:26:03;;;;;;;5.90;1.23;;;8.70;99.90;;;;;;5048874;28;20040;-82
2023/01/12 06:28:29;;;;;;;6.90;1.70;;;8.70;99.90;;;;;;5046883;28;20529;-82
2023/01/12 06:30:59;;;;;;;5.43;1.30;;;8.70;99.90;;;;;;5050038;28;20025;-84
2023/01/12 06:33:25;;;;;;;7.50;1.60;;;8.70;99.90;;;;;;5051520;28;20021;-85
2023/01/12 06:35:52;;;;;;;9.85;1.60;;;8.80;99.90;;;;;;5051316;28;20032;-83
2023/01/12 06:38:18;;;;;;;6.65;1.20;;;8.80;99.90;;;;;;5042482;28;20049;-84
2023/01/12 06:40:43;;;;;;;4.78;0.90;;;8.80;99.90;;;;;;5050329;28;20033;-85
2023/01/12 06:43:10;;;;;;;6.28;1.10;;;8.80;99.90;;;;;;5032306;28;20028;-87
2023/01/12 06:45:35;;;;;;;7.75;1.75;;;8.90;99.90;;;;;;5049073;28;20041;-82
2023/01/12 06:48:01;;;;;;;7.43;1.45;;;8.80;99.90;;;;;;5051372;28;20107;-84
2023/01/12 06:50:27;;;;;;;7.07;1.40;;;8.80;99.90;;;;;;5052155;28;20029;-83
2023/01/12 06:52:54;;;;;;;6.97;1.48;;;8.80;99.90;;;;;;5051765;28;20020;-81
2023/01/12 06:55:20;;;;;;;4.78;1.40;;;8.90;99.90;;;;;;5034313;28;20029;-84
2023/01/12 06:57:45;;;;;;;5.85;1.85;;;8.90;99.90;;;;;;5052136;28;20021;-83
2023/01/12 07:00:12;;;;;;;5.25;1.48;;;8.90;99.90;;;;;;5052691;28;20029;-85
2023/01/12 07:02:38;;;;;;;4.97;1.67;;;8.90;99.90;;;;;;5034323;28;20028;-83
2023/01/12 07:05:04;;;;;;;4.95;1.77;;;8.90;99.90;;;;;;5051380;28;20021;-83
2023/01/12 07:07:29;;;;;;;7.13;2.00;;;8.90;99.90;;;;;;5051685;28;20075;-84
2023/01/12 07:09:55;;;;;;;5.20;1.85;;;9.00;99.90;;;;;;5051674;28;20371;-85
2023/01/12 07:12:21;;;;;;;5.88;1.95;;;9.00;99.90;;;;;;5052096;28;20051;-82
2023/01/12 07:14:46;;;;;;;8.38;1.98;;;9.00;99.90;;;;;;5051568;28;20028;-83
2023/01/12 07:17:12;;;;;;;3.30;1.65;;;9.00;99.90;;;;;;5034015;28;20036;-83
2023/01/12 07:19:38;;;;;;;6.15;1.80;;;9.00;99.90;;;;;;5052258;28;20024;-85
2023/01/12 07:22:04;;;;;;;5.10;2.13;;;9.00;99.90;;;;;;5034539;28;20021;-86
2023/01/12 07:24:29;;;;;;;5.40;2.75;;;9.00;99.90;;;;;;5052226;28;20100;-86
2023/01/12 07:26:57;;;;;;;3.70;1.70;;;9.10;99.90;;;;;;5033858;28;20190;-85
2023/01/12 07:29:23;;;;;;;6.20;2.00;;;9.00;99.90;;;;;;5034016;28;20017;-84
2023/01/12 07:31:49;;;;;;;5.53;2.15;;;9.10;99.90;;;;;;5051975;28;20052;-84
2023/01/12 07:34:15;;;;;;;5.28;2.15;;;9.00;99.90;;;;;;5051739;28;20467;-85
2023/01/12 07:36:41;;;;;;;4.13;2.25;;;9.10;99.90;;;;;;5051958;28;20041;-85
2023/01/12 07:39:09;;;;;;;3.72;2.22;;;9.10;99.90;;;;;;5051311;28;20075;-83
2023/01/12 07:44:19;;;;;;;4.35;2.17;;;9.10;99.90;;;;;;5036825;28;20109;-85
2023/01/12 07:46:44;;;;;;;6.50;2.38;;;9.20;99.90;;;;;;5054284;28;20064;-83
2023/01/12 07:49:10;;;;;;;6.13;2.40;;;9.20;99.90;;;;;;5054489;28;20032;-83
2023/01/12 07:51:36;;;;;;;5.15;2.53;;;9.20;99.90;;;;;;5054678;28;20070;-84
2023/01/12 07:54:01;;;;;;;6.45;2.20;;;9.20;99.90;;;;;;5054526;28;20100;-82
2023/01/12 07:56:27;;;;;;;5.15;1.73;;;9.30;99.90;;;;;;5036596;28;20478;-81
2023/01/12 07:58:53;;;;;;;3.67;1.73;;;9.30;99.90;;;;;;5035689;28;20125;-81
2023/01/12 08:01:18;;;;;;;6.18;2.10;;;9.30;99.90;;;;;;5059153;28;20029;-84
2023/01/12 08:03:44;;;;;;;5.70;2.30;;;9.30;99.90;;;;;;5039519;28;20021;-83
2023/01/12 08:06:09;;;;;;;6.18;2.15;;;9.30;99.90;;;;;;5036457;28;20399;-81
2023/01/12 08:08:35;;;;;;;6.00;2.38;;;9.30;99.90;;;;;;5054378;28;20100;-84
2023/01/12 08:11:03;;;;;;;5.00;2.63;;;9.30;99.90;;;;;;5055175;28;20451;-84
2023/01/12 08:13:29;;;;;;;6.72;2.50;;;9.30;99.90;;;;;;5036905;28;20025;-85
2023/01/12 08:15:55;;;;;;;5.80;2.40;;;9.30;99.90;;;;;;5036249;28;20433;-85
2023/01/12 08:18:26;;;;;;;5.03;2.80;;;9.30;99.90;;;;;;5036207;28;20024;-84
2023/01/12 08:20:53;;;;;;;4.78;2.17;;;9.40;99.90;;;;;;5054286;28;20021;-82
2023/01/12 08:23:36;;;;;;;4.13;2.42;;;9.40;99.90;;;;;;5054265;28;20021;-83
2023/01/12 08:26:09;;;;;;;4.68;2.40;;;9.40;99.90;;;;;;5053939;28;20024;-83
2023/01/12 08:28:39;;;;;;;4.25;2.47;;;9.40;99.90;;;;;;5054054;28;20024;-82
2023/01/12 08:31:08;;;;;;;5.60;2.90;;;9.40;99.90;;;;;;5054063;28;20024;-82
2023/01/12 08:33:35;;;;;;;5.88;2.78;;;9.40;99.90;;;;;;5036425;28;20064;-81
2023/01/12 08:36:07;;;;;;;4.18;2.47;;;9.50;99.90;;;;;;5053965;28;20033;-81
2023/01/12 08:38:33;;;;;;;6.65;3.20;;;9.50;99.90;;;;;;5035731;28;20106;-81
2023/01/12 08:44:00;;;;;;;4.90;3.28;;;9.50;99.90;;;;;;5053117;28;20183;-82
2023/01/12 08:46:27;;;;;;;5.22;3.00;;;9.50;99.90;;;;;;5048247;28;20052;-84
2023/01/12 08:48:52;;;;;;;5.50;3.15;;;9.50;99.90;;;;;;5053137;28;20047;-83
2023/01/12 08:51:18;;;;;;;4.97;2.85;;;9.50;99.90;;;;;;5053175;28;20060;-82
2023/01/12 08:53:44;;;;;;;3.80;2.95;;;9.50;99.90;;;;;;5053307;28;20360;-81
2023/01/12 08:56:10;;;;;;;6.20;2.95;;;9.60;99.90;;;;;;5053424;28;20046;-83
2023/01/12 08:58:35;;;;;;;6.53;3.28;;;9.60;99.90;;;;;;5035473;28;20364;-82
2023/01/12 09:01:20;;;;;;;6.07;3.67;;;9.60;99.90;;;;;;5053124;28;20032;-83
2023/01/12 09:03:47;;;;;;;5.57;3.50;;;9.60;99.90;;;;;;5053122;28;20017;-83
2023/01/12 09:06:18;;;;;;;6.00;3.45;;;9.60;99.90;;;;;;5052564;28;20028;-82
2023/01/12 09:08:45;;;;;;;4.25;3.60;;;9.60;99.90;;;;;;5053240;28;20440;-84
2023/01/12 09:11:12;;;;;;;6.07;3.97;;;9.70;99.90;;;;;;5053077;28;20025;-82
2023/01/12 09:13:38;;;;;;;5.55;3.97;;;9.70;99.90;;;;;;5035068;28;20074;-82
2023/01/12 09:16:12;;;;;;;5.95;4.28;;;9.70;99.90;;;;;;5052935;28;20017;-83
2023/01/12 09:18:38;;;;;;;6.28;3.72;;;9.70;99.90;;;;;;5034336;28;20087;-83
2023/01/12 09:21:12;;;;;;;6.10;3.97;;;9.70;99.90;;;;;;5052874;28;20029;-83
2023/01/12 09:23:38;;;;;;;6.05;4.20;;;9.70;99.90;;;;;;5052998;28;20032;-82
2023/01/12 09:26:12;;;;;;;5.85;3.80;;;9.70;99.90;;;;;;5052748;28;20538;-83
2023/01/12 09:28:37;;;;;;;6.47;3.92;;;9.80;99.90;;;;;;5053106;28;20029;-82
2023/01/12 09:31:06;;;;;;;6.07;4.30;;;9.80;99.90;;;;;;5035315;28;20021;-84
2023/01/12 09:33:32;;;;;;;6.57;3.75;;;9.80;99.90;;;;;;5053260;28;20021;-84
2023/01/12 09:36:05;;;;;;;6.35;3.95;;;9.80;99.90;;;;;;5053192;28;20029;-84
2023/01/12 09:38:34;;;;;;;5.40;4.20;;;9.80;99.90;;;;;;5052968;28;20068;-84
2023/01/12 09:41:07;;;;;;;5.53;4.32;;;9.80;99.90;;;;;;5059790;28;20024;-83
2023/01/12 09:49:17;;;;;;;6.78;3.80;;;9.90;99.90;;;;;;5052731;28;20036;-82
2023/01/12 09:51:54;;;;;;;6.28;4.63;;;9.90;99.90;;;;;;5052419;28;20020;-83
2023/01/12 09:54:20;;;;;;;6.75;5.05;;;10.00;99.90;;;;;;5034521;28;20020;-82
2023/01/12 09:57:00;;;;;;;6.43;4.53;;;10.00;99.90;;;;;;5052263;28;20017;-81
2023/01/12 10:00:02;;;;;;;6.18;4.20;;;10.00;99.90;;;;;;5052574;28;20468;-81
2023/01/12 10:02:33;;;;;;;6.03;4.07;;;10.00;99.90;;;;;;5038668;28;20016;-82
2023/01/12 10:05:04;;;;;;;6.15;3.67;;;10.10;99.90;;;;;;5051167;28;20051;-81
2023/01/12 10:07:29;;;;;;;5.20;3.65;;;10.10;99.90;;;;;;5040062;28;20059;-82
2023/01/12 10:09:56;;;;;;;4.50;3.35;;;10.10;99.90;;;;;;5035542;28;20052;-83
2023/01/12 10:12:31;;;;;;;5.13;3.28;;;10.10;99.90;;;;;;5051930;28;20029;-81
2023/01/12 10:15:38;;;;;;;5.55;3.50;;;10.10;99.90;;;;;;5051952;28;20153;-80
2023/01/12 10:18:21;;;;;;;3.55;2.90;;;10.10;99.90;;;;;;5033948;28;20036;-81
2023/01/12 10:20:48;;;;;;;;;;;10.10;99.90;;;;;;5052138;28;20065;-81
2023/01/12 10:23:23;;;;;;;3.80;2.97;;;10.10;99.90;;;;;;5041024;28;19904;-81
2023/01/12 10:26:10;;;;;;;3.35;2.30;;;10.20;99.90;;;;;;5051749;28;20068;-80
2023/01/12 10:28:36;;;;;;;4.00;2.60;;;10.20;99.90;;;;;;5034284;28;20708;-81
2023/01/12 10:31:02;;;;;;;3.38;2.30;;;10.20;99.90;;;;;;5051819;28;20108;-82
2023/01/12 10:33:33;;;;;;;3.25;2.17;;;10.20;99.90;;;;;;5033768;28;20017;-82
2023/01/12 10:36:09;;;;;;;2.95;1.98;;;10.20;99.90;;;;;;5033921;28;20090;-82
2023/01/12 10:38:51;;;;;;;2.42;1.65;;;10.20;99.90;;;;;;5051458;28;20051;-82
2023/01/12 10:41:22;;;;;;;4.25;2.03;;;10.20;99.90;;;;;;5034010;28;20051;-82
2023/01/12 10:43:56;;;;;;;2.53;1.85;;;10.20;99.90;;;;;;5051391;28;20029;-81
2023/01/12 10:46:26;;;;;;;2.70;1.90;;;10.20;99.90;;;;;;5033424;28;20033;-84
2023/01/12 10:48:54;;;;;;;2.88;1.67;;;10.20;99.90;;;;;;5033731;28;20104;-83
2023/01/12 10:51:33;;;;;;;2.85;1.70;;;10.20;99.90;;;;;;5051814;28;20028;-81
2023/01/12 10:54:09;;;;;;;3.70;2.17;;;10.30;99.90;;;;;;5033796;28;20079;-82
2023/01/12 10:56:42;;;;;;;2.20;1.50;;;10.30;99.90;;;;;;5051281;28;20017;-82
2023/01/12 10:59:11;;;;;;;2.05;1.40;;;10.30;99.90;;;;;;5051692;28;20025;-84
2023/01/12 11:02:07;;;;;;;2.42;1.60;;;10.30;99.90;;;;;;5051725;28;20099;-83
2023/01/12 11:04:43;;;;;;;2.25;1.70;;;10.30;99.90;;;;;;5051520;28;20104;-84
2023/01/12 11:07:13;;;;;;;2.47;1.58;;;10.40;99.90;;;;;;5051411;28;20040;-82
2023/01/12 11:09:42;;;;;;;4.45;1.65;;;10.40;99.90;;;;;;5051502;28;20017;-83
2023/01/12 11:12:33;;;;;;;2.50;1.77;;;10.40;99.90;;;;;;5051489;28;20119;-82
2023/01/12 11:15:02;;;;;;;2.58;1.80;;;10.40;99.90;;;;;;5051348;28;20445;-81
2023/01/12 11:17:33;;;;;;;2.13;1.88;;;10.40;99.90;;;;;;5051313;28;20028;-82
2023/01/12 11:20:00;;;;;;;2.88;2.05;;;10.50;99.90;;;;;;5052248;28;20478;-84
2023/01/12 11:22:36;;;;;;;3.30;2.58;;;10.50;99.90;;;;;;5037161;28;20020;-81
2023/01/12 11:25:05;;;;;;;3.53;2.03;;;10.50;99.90;;;;;;5055135;28;20107;-82
2023/01/12 11:27:38;;;;;;;2.72;1.90;;;10.50;99.90;;;;;;5037177;28;20069;-83
2023/01/12 11:30:20;;;;;;;;;;;10.50;99.90;;;;;;5055585;28;20520;-83
2023/01/12 11:33:11;;;;;;;3.75;2.50;;;10.50;99.90;;;;;;5037211;28;19948;-82
2023/01/12 11:36:01;;;;;;;4.03;2.53;;;10.50;99.90;;;;;;5054602;28;20100;-81
2023/01/12 11:38:39;;;;;;;3.50;2.35;;;10.50;99.90;;;;;;5055353;28;20520;-78
2023/01/12 11:41:11;;;;;;;3.20;2.60;;;10.50;99.90;;;;;;5059473;28;20028;-81
2023/01/12 11:43:54;;;;;;;3.35;2.85;;;10.50;99.90;;;;;;5060077;28;20037;-79
2023/01/12 11:46:31;;;;;;;3.05;2.58;;;10.50;99.90;;;;;;5059276;28;20025;-81
2023/01/12 11:49:26;;;;;;;3.50;2.55;;;10.50;99.90;;;;;;5057437;28;20383;-80
2023/01/12 11:51:57;;;;;;;5.05;3.17;;;10.50;99.90;;;;;;5059386;28;20039;-80
2023/01/12 11:54:25;;;;;;;3.60;2.88;;;10.50;99.90;;;;;;5057643;28;20047;-80
2023/01/12 11:57:40;;;;;;;3.80;2.95;;;10.50;99.90;;;;;;5061669;28;20028;-79
2023/01/12 12:00:27;;;;;;;4.10;3.05;;;10.50;99.90;;;;;;4979410;28;20039;-78
2023/01/12 12:03:18;;;;;;;4.57;3.20;;;10.50;99.90;;;;;;5062298;28;20035;-80
2023/01/12 12:06:02;;;;;;;4.80;3.50;;;10.50;99.90;;;;;;5048952;28;20033;-81
2023/01/12 12:08:54;;;;;;;3.65;3.00;;;10.50;99.90;;;;;;5053177;28;20032;-80
2023/01/12 12:11:50;;;;;;;3.55;2.80;;;10.50;99.90;;;;;;5036680;28;20055;-82
2023/01/12 12:14:31;;;;;;;3.88;2.95;;;10.60;99.90;;;;;;5028417;28;20056;-80
2023/01/12 12:17:06;;;;;;;4.18;3.20;;;10.60;99.90;;;;;;5053946;28;20025;-82
2023/01/12 12:19:34;;;;;;;3.70;3.05;;;10.60;99.90;;;;;;5054323;28;20025;-84
2023/01/12 12:22:21;;;;;;;5.45;2.85;;;10.50;99.90;;;;;;5054117;28;20387;-82
2023/01/12 12:25:04;;;;;;;3.95;2.70;;;10.50;99.90;;;;;;5038999;28;20079;-80
2023/01/12 12:27:41;;;;;;;3.05;2.65;;;10.60;99.90;;;;;;5035964;28;20041;-81
2023/01/12 12:30:26;;;;;;;3.65;2.63;;;10.50;99.90;;;;;;5031562;28;20029;-81
2023/01/12 12:32:51;;;;;;;3.00;2.60;;;10.60;99.90;;;;;;5052541;28;20568;-79
2023/01/12 12:35:51;;;;;;;2.17;1.98;;;10.60;99.90;;;;;;5053429;28;20012;-79
2023/01/12 12:38:36;;;;;;;2.22;1.92;;;10.60;99.90;;;;;;5032458;28;20056;-81
2023/01/12 12:48:02;;;;;;;2.75;2.08;;;10.60;99.90;;;;;;5039933;28;20114;-84
2023/01/12 12:51:03;;;;;;;3.00;1.80;;;10.60;99.90;;;;;;5051652;28;20100;-81
2023/01/12 12:53:34;;;;;;;2.70;1.90;;;10.60;99.90;;;;;;5036462;28;20478;-81
2023/01/12 12:56:03;;;;;;;3.00;2.38;;;10.60;99.90;;;;;;5036199;28;20013;-80
2023/01/12 12:58:37;;;;;;;3.97;2.50;;;10.60;99.90;;;;;;5052681;28;20024;-81
2023/01/12 13:01:18;;;;;;;3.35;2.17;;;10.60;99.90;;;;;;5050790;28;20044;-82
2023/01/12 13:03:48;;;;;;;2.65;1.83;;;10.60;99.90;;;;;;5048980;28;20029;-83
2023/01/12 13:06:24;;;;;;;2.67;1.98;;;10.60;99.90;;;;;;5057578;28;20086;-80
2023/01/12 13:08:52;;;;;;;1.40;1.25;;;10.60;99.90;;;;;;5052686;28;20017;-83
2023/01/12 13:11:18;;;;;;;1.77;1.50;;;10.60;99.90;;;;;;5053283;28;20044;-82
2023/01/12 13:14:03;;;;;;;2.72;1.90;;;10.60;99.90;;;;;;5052719;28;20096;-81
2023/01/12 13:16:29;;;;;;;2.05;1.60;;;10.60;99.90;;;;;;5051220;28;20024;-82
2023/01/12 13:18:54;;;;;;;2.78;1.83;;;10.60;99.90;;;;;;5052375;28;20025;-83
2023/01/12 13:21:27;;;;;;;2.45;2.05;;;10.50;99.90;;;;;;5052540;28;20039;-83
2023/01/12 13:24:15;;;;;;;3.38;2.70;;;10.50;99.90;;;;;;5052429;28;20493;-83
2023/01/12 13:26:42;;;;;;;3.97;3.17;;;10.50;99.90;;;;;;5040000;28;20033;-82
2023/01/12 13:29:23;;;;;;;4.57;3.63;;;10.50;99.90;;;;;;5052153;28;20021;-82
2023/01/12 13:31:58;;;;;;;6.22;4.10;;;10.50;99.90;;;;;;5051771;28;20387;-83
2023/01/12 13:34:36;;;;;;;5.07;3.10;;;10.40;99.90;;;;;;5052343;28;20563;-82
2023/01/12 13:37:20;;;;;;;4.03;3.28;;;10.50;99.90;;;;;;5051964;28;20056;-83
2023/01/12 13:39:57;;;;;;;3.22;2.85;;;10.40;99.90;;;;;;5034346;28;20025;-82
2023/01/12 13:45:10;;;;;;;4.32;2.90;;;10.40;99.90;;;;;;5051943;28;20036;-83
2023/01/12 13:47:36;;;;;;;2.95;2.47;;;10.40;99.90;;;;;;5051726;28;20490;-81
2023/01/12 13:50:03;;;;;;;3.20;2.53;;;10.30;99.90;;;;;;5052007;28;20013;-83
2023/01/12 13:52:34;;;;;;;2.95;2.10;;;10.40;99.90;;;;;;5034165;28;20055;-83